createdAt,value
2019-03-31T00:00:51.699Z,79.40
2019-03-31T00:01:51.672Z,81.10
2019-03-31T00:02:51.644Z,86.10
2019-03-31T00:03:51.617Z,85.80
2019-03-31T00:04:51.587Z,77.90
2019-03-31T00:05:51.561Z,84.80
2019-03-31T00:06:51.532Z,70.50
2019-03-31T00:07:51.509Z,64.70
2019-03-31T00:08:51.477Z,75.90
2019-03-31T00:09:51.449Z,66.20
2019-03-31T00:10:51.419Z,67.40
2019-03-31T00:11:51.392Z,63.30
2019-03-31T00:12:51.363Z,65.70
2019-03-31T00:13:51.335Z,72.60
2019-03-31T00:14:51.307Z,69.50
2019-03-31T00:15:51.280Z,67.40
2019-03-31T00:16:52.599Z,70.70
2019-03-31T00:17:51.223Z,73.40
2019-03-31T00:18:51.195Z,70.50
2019-03-31T00:19:51.167Z,66.70
2019-03-31T00:20:51.140Z,72.70
2019-03-31T00:21:51.110Z,59.70
2019-03-31T00:22:51.081Z,55.40
2019-03-31T00:23:51.058Z,61.90
2019-03-31T00:24:53.443Z,67.90
2019-03-31T00:25:50.999Z,68.90
2019-03-31T00:26:50.968Z,65.90
2019-03-31T00:27:50.939Z,67.20
2019-03-31T00:28:50.912Z,63.90
2019-03-31T00:29:50.887Z,70.30
2019-03-31T00:30:50.854Z,72.30
2019-03-31T00:31:50.826Z,66.50
2019-03-31T00:32:50.803Z,74.70
2019-03-31T00:33:50.769Z,72.80
2019-03-31T00:34:50.740Z,68.60
2019-03-31T00:35:50.711Z,73.60
2019-03-31T00:36:50.682Z,70.50
2019-03-31T00:37:50.654Z,70.40
2019-03-31T00:38:50.625Z,70.10
2019-03-31T00:39:50.600Z,68.90
2019-03-31T00:40:50.569Z,69.10
2019-03-31T00:41:50.541Z,66.10
2019-03-31T00:42:50.511Z,72.70
2019-03-31T00:43:50.487Z,73.30
2019-03-31T00:44:50.453Z,74.30
2019-03-31T00:45:50.424Z,72.90
2019-03-31T00:46:50.396Z,63.90
2019-03-31T00:47:50.366Z,73.00
2019-03-31T00:48:50.337Z,62.30
2019-03-31T00:49:50.317Z,73.20
2019-03-31T00:50:50.281Z,75.30
2019-03-31T00:51:50.252Z,68.40
2019-03-31T00:52:50.222Z,72.00
2019-03-31T00:53:50.195Z,72.00
2019-03-31T00:54:50.165Z,71.10
2019-03-31T00:55:50.136Z,75.00
2019-03-31T00:56:50.107Z,75.40
2019-03-31T00:57:50.078Z,70.30
2019-03-31T00:58:50.049Z,74.50
2019-03-31T00:59:50.020Z,73.90
2019-03-31T01:00:49.990Z,77.50
2019-03-31T01:01:49.965Z,71.40
2019-03-31T01:02:49.936Z,74.00
2019-03-31T01:03:49.905Z,82.30
2019-03-31T01:04:49.875Z,75.40
2019-03-31T01:05:49.846Z,78.00
2019-03-31T01:06:49.821Z,79.90
2019-03-31T01:07:49.790Z,80.90
2019-03-31T01:08:49.759Z,73.40
2019-03-31T01:09:49.730Z,70.40
2019-03-31T01:10:49.704Z,74.70
2019-03-31T01:11:49.673Z,71.80
2019-03-31T01:12:49.644Z,78.50
2019-03-31T01:13:49.614Z,77.20
2019-03-31T01:14:49.585Z,76.50
2019-03-31T01:15:49.557Z,76.50
2019-03-31T01:16:49.526Z,80.70
2019-03-31T01:17:49.498Z,87.00
2019-03-31T01:18:49.470Z,90.90
2019-03-31T01:19:49.452Z,78.60
2019-03-31T01:20:49.411Z,85.70
2019-03-31T01:21:49.381Z,86.80
2019-03-31T01:22:49.352Z,86.70
2019-03-31T01:23:49.328Z,93.00
2019-03-31T01:24:49.293Z,85.00
2019-03-31T01:25:49.266Z,86.20
2019-03-31T01:26:49.236Z,90.70
2019-03-31T01:27:49.206Z,83.90
2019-03-31T01:28:49.180Z,79.10
2019-03-31T01:29:49.148Z,90.40
2019-03-31T01:30:49.117Z,85.10
2019-03-31T01:31:50.672Z,86.20
2019-03-31T01:32:49.060Z,88.20
2019-03-31T01:33:49.030Z,83.60
2019-03-31T01:34:49.002Z,84.20
2019-03-31T01:35:48.972Z,89.60
2019-03-31T01:36:48.942Z,83.90
2019-03-31T01:37:48.920Z,83.10
2019-03-31T01:38:48.885Z,94.10
2019-03-31T01:39:48.855Z,85.20
2019-03-31T01:40:48.824Z,87.40
2019-03-31T01:41:48.795Z,86.40
2019-03-31T01:42:48.765Z,89.40
2019-03-31T01:43:48.739Z,86.10
2019-03-31T01:44:48.707Z,94.00
2019-03-31T01:45:48.678Z,96.80
2019-03-31T01:46:48.649Z,86.60
2019-03-31T01:47:48.620Z,88.20
2019-03-31T01:48:48.591Z,90.00
2019-03-31T01:49:48.559Z,93.60
2019-03-31T01:50:48.531Z,90.20
2019-03-31T01:51:48.501Z,93.30
2019-03-31T01:52:48.473Z,98.10
2019-03-31T01:53:48.443Z,88.80
2019-03-31T01:54:48.421Z,92.40
2019-03-31T01:55:48.385Z,93.10
2019-03-31T01:56:48.354Z,89.70
2019-03-31T01:57:48.326Z,87.80
2019-03-31T01:58:48.295Z,97.80
2019-03-31T01:59:48.267Z,100.20
2019-03-31T02:00:48.239Z,94.40
2019-03-31T02:01:48.208Z,96.50
2019-03-31T02:02:48.178Z,104.60
2019-03-31T02:03:48.152Z,101.30
2019-03-31T02:04:48.118Z,104.20
2019-03-31T02:05:48.092Z,99.30
2019-03-31T02:06:48.064Z,100.70
2019-03-31T02:07:48.033Z,102.70
2019-03-31T02:08:48.003Z,100.00
2019-03-31T02:09:47.971Z,106.50
2019-03-31T02:10:47.943Z,107.30
2019-03-31T02:11:47.912Z,102.80
2019-03-31T02:12:47.883Z,110.90
2019-03-31T02:13:47.854Z,105.50
2019-03-31T02:14:47.828Z,118.40
2019-03-31T02:15:47.796Z,113.00
2019-03-31T02:16:47.767Z,110.10
2019-03-31T02:17:47.740Z,112.80
2019-03-31T02:18:47.708Z,111.40
2019-03-31T02:19:47.681Z,112.50
2019-03-31T02:20:47.647Z,109.70
2019-03-31T02:21:47.617Z,116.90
2019-03-31T02:22:47.593Z,116.70
2019-03-31T02:23:47.560Z,118.40
2019-03-31T02:24:47.527Z,114.00
2019-03-31T02:25:47.500Z,118.10
2019-03-31T02:26:47.470Z,123.00
2019-03-31T02:27:47.440Z,121.40
2019-03-31T02:28:47.411Z,115.10
2019-03-31T02:29:47.384Z,125.40
2019-03-31T02:30:47.354Z,120.80
2019-03-31T02:31:47.320Z,116.40
2019-03-31T02:32:47.297Z,124.50
2019-03-31T02:33:47.265Z,123.60
2019-03-31T02:34:47.234Z,127.80
2019-03-31T02:35:47.202Z,125.80
2019-03-31T02:36:47.173Z,125.40
2019-03-31T02:37:47.143Z,125.00
2019-03-31T02:38:47.114Z,121.00
2019-03-31T02:39:47.084Z,124.60
2019-03-31T02:40:47.057Z,128.70
2019-03-31T02:41:47.024Z,129.10
2019-03-31T02:42:46.998Z,130.60
2019-03-31T02:43:46.964Z,136.00
2019-03-31T02:44:46.935Z,134.20
2019-03-31T02:45:46.903Z,131.10
2019-03-31T02:46:46.875Z,135.40
2019-03-31T02:47:46.853Z,135.80
2019-03-31T02:48:46.812Z,135.30
2019-03-31T02:49:46.784Z,132.50
2019-03-31T02:50:46.756Z,134.10
2019-03-31T02:51:46.723Z,134.40
2019-03-31T02:52:46.696Z,133.80
2019-03-31T02:53:46.664Z,141.80
2019-03-31T02:54:46.666Z,132.50
2019-03-31T02:55:46.609Z,135.90
2019-03-31T02:56:46.575Z,133.00
2019-03-31T02:57:46.548Z,133.60
2019-03-31T02:58:46.516Z,136.30
2019-03-31T02:59:46.485Z,136.40
2019-03-31T03:00:46.454Z,120.80
2019-03-31T03:01:46.427Z,131.00
2019-03-31T03:02:46.403Z,122.90
2019-03-31T03:03:46.369Z,118.00
2019-03-31T03:04:46.348Z,132.10
2019-03-31T03:05:46.304Z,132.20
2019-03-31T03:06:46.276Z,127.40
2019-03-31T03:07:46.274Z,122.50
2019-03-31T03:08:46.219Z,117.30
2019-03-31T03:09:46.185Z,91.50
2019-03-31T03:10:46.158Z,119.60
2019-03-31T03:11:46.128Z,130.30
2019-03-31T03:12:46.096Z,129.10
2019-03-31T03:13:46.067Z,131.50
2019-03-31T03:14:46.037Z,125.50
2019-03-31T03:15:46.008Z,125.70
2019-03-31T03:16:45.979Z,126.80
2019-03-31T03:17:45.952Z,120.70
2019-03-31T03:18:45.921Z,117.90
2019-03-31T03:19:45.896Z,118.00
2019-03-31T03:20:45.862Z,121.60
2019-03-31T03:21:45.834Z,115.40
2019-03-31T03:22:45.797Z,106.50
2019-03-31T03:23:45.769Z,103.70
2019-03-31T03:24:45.741Z,89.90
2019-03-31T03:25:55.682Z,108.80
2019-03-31T03:26:45.679Z,109.20
2019-03-31T03:27:45.650Z,100.70
2019-03-31T03:28:45.633Z,99.70
2019-03-31T03:29:45.595Z,104.20
2019-03-31T03:30:45.922Z,103.90
2019-03-31T03:31:45.605Z,101.30
2019-03-31T03:33:12.520Z,99.50
2019-03-31T03:33:45.476Z,102.10
2019-03-31T03:34:45.441Z,104.50
2019-03-31T03:35:45.429Z,99.00
2019-03-31T03:36:45.384Z,101.60
2019-03-31T03:37:45.353Z,92.60
2019-03-31T03:38:45.323Z,94.70
2019-03-31T03:39:45.302Z,88.00
2019-03-31T03:40:45.263Z,101.40
2019-03-31T03:41:45.233Z,89.50
2019-03-31T03:42:45.204Z,97.30
2019-03-31T03:43:55.146Z,94.80
2019-03-31T03:44:45.350Z,83.70
2019-03-31T03:45:45.114Z,88.70
2019-03-31T03:46:45.085Z,87.70
2019-03-31T03:47:45.056Z,81.40
2019-03-31T03:48:45.026Z,81.00
2019-03-31T03:49:44.995Z,79.60
2019-03-31T03:50:44.966Z,71.70
2019-03-31T03:51:44.935Z,76.20
2019-03-31T03:52:44.906Z,75.90
2019-03-31T03:53:44.877Z,69.30
2019-03-31T03:54:44.852Z,69.60
2019-03-31T03:55:44.818Z,73.00
2019-03-31T03:56:44.789Z,71.40
2019-03-31T03:57:44.760Z,71.30
2019-03-31T03:58:44.731Z,70.90
2019-03-31T03:59:44.699Z,75.10
2019-03-31T04:00:44.668Z,73.50
2019-03-31T04:01:44.638Z,72.90
2019-03-31T04:02:44.610Z,71.80
2019-03-31T04:03:44.581Z,71.70
2019-03-31T04:04:44.548Z,73.20
2019-03-31T04:05:44.533Z,72.90
2019-03-31T04:06:44.492Z,75.60
2019-03-31T04:07:44.463Z,69.80
2019-03-31T04:08:44.431Z,71.90
2019-03-31T04:09:44.400Z,65.10
2019-03-31T04:10:44.414Z,67.20
2019-03-31T04:11:44.343Z,61.00
2019-03-31T04:12:44.315Z,65.20
2019-03-31T04:13:44.292Z,65.00
2019-03-31T04:14:44.253Z,61.20
2019-03-31T04:15:44.231Z,63.10
2019-03-31T04:16:44.196Z,54.90
2019-03-31T04:17:44.173Z,56.40
2019-03-31T04:18:44.134Z,55.20
2019-03-31T04:19:44.107Z,56.30
2019-03-31T04:20:44.076Z,59.90
2019-03-31T04:21:44.050Z,60.10
2019-03-31T04:22:44.026Z,56.90
2019-03-31T04:23:43.990Z,57.40
2019-03-31T04:24:43.960Z,55.60
2019-03-31T04:25:43.929Z,54.10
2019-03-31T04:26:43.914Z,54.40
2019-03-31T04:27:43.869Z,63.90
2019-03-31T04:28:43.858Z,58.90
2019-03-31T04:29:43.813Z,55.90
2019-03-31T04:30:43.786Z,52.10
2019-03-31T04:31:43.751Z,57.40
2019-03-31T04:32:43.730Z,59.50
2019-03-31T04:33:51.257Z,58.60
2019-03-31T04:34:43.689Z,55.00
2019-03-31T04:35:43.633Z,60.50
2019-03-31T04:36:43.604Z,58.10
2019-03-31T04:37:43.571Z,58.70
2019-03-31T04:38:43.545Z,60.40
2019-03-31T04:39:43.513Z,56.40
2019-03-31T04:40:43.507Z,64.60
2019-03-31T04:41:43.453Z,59.60
2019-03-31T04:42:43.430Z,68.10
2019-03-31T04:43:43.395Z,59.60
2019-03-31T04:44:43.366Z,65.40
2019-03-31T04:45:43.336Z,61.10
2019-03-31T04:46:43.305Z,62.40
2019-03-31T04:47:43.273Z,59.20
2019-03-31T04:48:43.245Z,63.30
2019-03-31T04:49:43.214Z,62.80
2019-03-31T04:50:43.183Z,60.80
2019-03-31T04:51:43.154Z,64.20
2019-03-31T04:52:43.123Z,66.60
2019-03-31T04:53:43.097Z,66.60
2019-03-31T04:54:43.065Z,59.80
2019-03-31T04:55:43.034Z,65.70
2019-03-31T04:56:43.002Z,70.50
2019-03-31T04:57:42.986Z,62.00
2019-03-31T04:58:42.944Z,73.80
2019-03-31T04:59:42.912Z,70.60
2019-03-31T05:00:42.882Z,70.60
2019-03-31T05:01:42.853Z,72.50
2019-03-31T05:02:42.823Z,72.60
2019-03-31T05:03:42.793Z,77.10
2019-03-31T05:04:42.763Z,67.40
2019-03-31T05:05:42.734Z,69.20
2019-03-31T05:06:42.702Z,71.10
2019-03-31T05:07:42.671Z,69.50
2019-03-31T05:08:42.639Z,78.40
2019-03-31T05:09:42.609Z,69.40
2019-03-31T05:10:42.582Z,67.30
2019-03-31T05:11:42.551Z,68.00
2019-03-31T05:12:42.519Z,71.60
2019-03-31T05:13:42.490Z,73.30
2019-03-31T05:14:42.460Z,67.00
2019-03-31T05:15:42.430Z,69.10
2019-03-31T05:16:42.399Z,71.20
2019-03-31T05:17:42.371Z,76.50
2019-03-31T05:18:42.348Z,70.90
2019-03-31T05:19:42.308Z,73.40
2019-03-31T05:20:42.277Z,70.30
2019-03-31T05:21:42.248Z,70.40
2019-03-31T05:22:42.219Z,73.80
2019-03-31T05:23:42.190Z,66.10
2019-03-31T05:24:42.157Z,67.20
2019-03-31T05:25:42.125Z,72.50
2019-03-31T05:26:42.097Z,72.40
2019-03-31T05:27:42.068Z,70.50
2019-03-31T05:28:44.188Z,68.20
2019-03-31T05:29:42.005Z,73.20
2019-03-31T05:30:41.975Z,70.90
2019-03-31T05:31:41.945Z,68.60
2019-03-31T05:32:41.915Z,63.80
2019-03-31T05:33:41.887Z,71.30
2019-03-31T05:34:41.856Z,65.70
2019-03-31T05:35:41.824Z,71.80
2019-03-31T05:36:41.793Z,66.50
2019-03-31T05:37:50.818Z,70.20
2019-03-31T05:38:41.734Z,64.20
2019-03-31T05:39:41.705Z,62.30
2019-03-31T05:40:41.672Z,67.50
2019-03-31T05:41:41.644Z,62.40
2019-03-31T05:42:41.613Z,63.80
2019-03-31T05:43:41.585Z,63.90
2019-03-31T05:44:41.555Z,59.10
2019-03-31T05:45:41.526Z,62.70
2019-03-31T05:46:41.495Z,56.90
2019-03-31T05:47:41.466Z,60.00
2019-03-31T05:48:41.436Z,62.60
2019-03-31T05:49:41.408Z,60.50
2019-03-31T05:50:41.381Z,57.90
2019-03-31T05:51:41.347Z,62.70
2019-03-31T05:52:41.320Z,56.80
2019-03-31T05:53:41.289Z,60.70
2019-03-31T05:54:41.261Z,59.20
2019-03-31T05:55:41.231Z,58.30
2019-03-31T05:56:41.202Z,56.50
2019-03-31T05:57:41.174Z,66.40
2019-03-31T05:58:41.144Z,56.20
2019-03-31T05:59:41.115Z,56.20
2019-03-31T06:00:41.088Z,53.80
2019-03-31T06:01:41.057Z,58.50
2019-03-31T06:02:41.030Z,56.20
2019-03-31T06:03:41.001Z,60.30
2019-03-31T06:04:40.974Z,57.20
2019-03-31T06:05:40.943Z,58.80
2019-03-31T06:06:40.913Z,54.20
2019-03-31T06:07:40.885Z,62.00
2019-03-31T06:08:40.855Z,56.80
2019-03-31T06:09:40.827Z,57.70
2019-03-31T06:10:40.798Z,53.20
2019-03-31T06:11:40.769Z,57.80
2019-03-31T06:12:40.739Z,57.80
2019-03-31T06:13:40.715Z,56.80
2019-03-31T06:14:40.683Z,60.60
2019-03-31T06:15:40.654Z,53.40
2019-03-31T06:16:40.625Z,50.60
2019-03-31T06:17:40.596Z,57.50
2019-03-31T06:18:40.572Z,53.60
2019-03-31T06:19:40.539Z,55.70
2019-03-31T06:20:40.509Z,51.50
2019-03-31T06:21:40.481Z,52.20
2019-03-31T06:22:40.454Z,50.30
2019-03-31T06:23:40.427Z,47.10
2019-03-31T06:24:40.394Z,50.30
2019-03-31T06:25:40.370Z,47.40
2019-03-31T06:26:40.338Z,49.40
2019-03-31T06:27:40.311Z,49.70
2019-03-31T06:28:40.279Z,48.50
2019-03-31T06:29:40.250Z,45.40
2019-03-31T06:30:40.223Z,51.30
2019-03-31T06:31:40.193Z,45.00
2019-03-31T06:32:40.164Z,46.50
2019-03-31T06:33:40.139Z,48.80
2019-03-31T06:34:47.208Z,49.30
2019-03-31T06:35:40.079Z,48.50
2019-03-31T06:36:40.051Z,47.00
2019-03-31T06:37:40.022Z,43.70
2019-03-31T06:38:39.993Z,45.10
2019-03-31T06:39:39.964Z,49.10
2019-03-31T06:40:39.937Z,51.00
2019-03-31T06:41:39.907Z,45.60
2019-03-31T06:42:39.879Z,44.10
2019-03-31T06:43:39.850Z,45.00
2019-03-31T06:44:39.821Z,44.00
2019-03-31T06:45:39.793Z,43.10
2019-03-31T06:46:39.763Z,41.30
2019-03-31T06:47:39.736Z,41.40
2019-03-31T06:48:39.707Z,41.60
2019-03-31T06:49:39.678Z,46.20
2019-03-31T06:50:39.652Z,41.90
2019-03-31T06:51:39.624Z,42.20
2019-03-31T06:52:39.595Z,35.80
2019-03-31T06:53:39.567Z,40.80
2019-03-31T06:54:39.539Z,41.50
2019-03-31T06:55:39.512Z,45.70
2019-03-31T06:56:39.481Z,41.10
2019-03-31T06:57:39.454Z,39.80
2019-03-31T06:58:39.428Z,41.50
2019-03-31T06:59:39.399Z,39.30
2019-03-31T07:00:39.377Z,37.80
2019-03-31T07:01:39.343Z,43.20
2019-03-31T07:02:39.316Z,35.30
2019-03-31T07:03:39.309Z,38.00
2019-03-31T07:04:39.258Z,33.10
2019-03-31T07:05:39.234Z,37.40
2019-03-31T07:06:39.204Z,37.40
2019-03-31T07:07:39.177Z,42.60
2019-03-31T07:08:39.149Z,36.70
2019-03-31T07:09:39.121Z,38.50
2019-03-31T07:10:39.096Z,30.90
2019-03-31T07:11:39.065Z,29.40
2019-03-31T07:12:39.037Z,31.00
2019-03-31T07:13:39.010Z,31.90
2019-03-31T07:14:38.987Z,28.10
2019-03-31T07:15:38.954Z,30.40
2019-03-31T07:16:38.924Z,34.60
2019-03-31T07:17:38.902Z,29.30
2019-03-31T07:18:38.872Z,31.20
2019-03-31T07:19:38.844Z,27.40
2019-03-31T07:20:38.824Z,30.70
2019-03-31T07:21:38.788Z,28.60
2019-03-31T07:22:38.763Z,28.80
2019-03-31T07:23:38.734Z,24.70
2019-03-31T07:24:38.708Z,25.50
2019-03-31T07:25:38.681Z,31.10
2019-03-31T07:26:38.650Z,25.00
2019-03-31T07:27:38.627Z,27.50
2019-03-31T07:28:38.597Z,25.30
2019-03-31T07:29:38.568Z,27.90
2019-03-31T07:30:38.542Z,25.30
2019-03-31T07:31:38.515Z,30.20
2019-03-31T07:32:38.487Z,25.90
2019-03-31T07:33:38.460Z,27.30
2019-03-31T07:34:38.433Z,27.30
2019-03-31T07:35:39.117Z,27.70
2019-03-31T07:36:38.381Z,27.20
2019-03-31T07:37:47.226Z,24.80
2019-03-31T07:38:39.589Z,25.10
2019-03-31T07:39:38.296Z,28.30
2019-03-31T07:40:38.276Z,23.20
2019-03-31T07:41:38.242Z,23.70
2019-03-31T07:42:38.217Z,24.20
2019-03-31T07:43:38.191Z,20.80
2019-03-31T07:44:38.166Z,24.00
2019-03-31T07:45:38.140Z,26.70
2019-03-31T07:46:38.109Z,21.90
2019-03-31T07:47:38.083Z,19.60
2019-03-31T07:48:38.053Z,19.80
2019-03-31T07:49:38.025Z,21.80
2019-03-31T07:50:38.001Z,23.60
2019-03-31T07:51:37.975Z,21.30
2019-03-31T07:52:37.951Z,22.70
2019-03-31T07:53:37.921Z,22.10
2019-03-31T07:54:37.892Z,20.70
2019-03-31T07:55:37.867Z,20.10
2019-03-31T07:56:37.840Z,18.20
2019-03-31T07:57:37.830Z,16.70
2019-03-31T07:58:37.845Z,21.90
2019-03-31T07:59:37.796Z,20.80
2019-03-31T08:00:37.731Z,21.20
2019-03-31T08:01:37.770Z,17.70
2019-03-31T08:02:37.678Z,15.60
2019-03-31T08:03:37.651Z,17.90
2019-03-31T08:04:37.624Z,17.70
2019-03-31T08:05:37.828Z,16.90
2019-03-31T08:06:37.569Z,22.50
2019-03-31T08:07:37.544Z,17.60
2019-03-31T08:08:37.516Z,16.10
2019-03-31T08:09:37.490Z,22.70
2019-03-31T08:10:37.465Z,18.30
2019-03-31T08:11:37.435Z,18.00
2019-03-31T08:12:37.409Z,19.70
2019-03-31T08:13:37.382Z,19.60
2019-03-31T08:14:37.357Z,18.20
2019-03-31T08:15:37.331Z,16.40
2019-03-31T08:16:37.303Z,13.40
2019-03-31T08:17:37.278Z,14.20
2019-03-31T08:18:37.254Z,12.60
2019-03-31T08:19:37.228Z,13.10
2019-03-31T08:20:37.207Z,14.20
2019-03-31T08:21:37.185Z,13.20
2019-03-31T08:22:37.155Z,13.80
2019-03-31T08:23:37.131Z,11.40
2019-03-31T08:24:37.106Z,11.30
2019-03-31T08:25:37.082Z,11.50
2019-03-31T08:26:37.057Z,14.10
2019-03-31T08:27:37.035Z,11.30
2019-03-31T08:28:37.008Z,13.60
2019-03-31T08:29:36.982Z,17.10
2019-03-31T08:30:36.959Z,15.00
2019-03-31T08:31:36.933Z,15.00
2019-03-31T08:32:36.909Z,10.10
2019-03-31T08:33:36.882Z,8.90
2019-03-31T08:34:36.859Z,12.50
2019-03-31T08:35:47.323Z,12.70
2019-03-31T08:36:36.818Z,11.70
2019-03-31T08:37:36.786Z,10.80
2019-03-31T08:38:36.762Z,14.00
2019-03-31T08:39:36.738Z,12.30
2019-03-31T08:40:36.714Z,11.80
2019-03-31T08:41:36.695Z,11.90
2019-03-31T08:42:36.668Z,9.70
2019-03-31T08:43:36.686Z,7.50
2019-03-31T08:44:36.623Z,7.00
2019-03-31T08:45:36.600Z,9.60
2019-03-31T08:46:36.579Z,9.90
2019-03-31T08:47:36.555Z,6.90
2019-03-31T08:48:36.531Z,9.80
2019-03-31T08:49:36.511Z,7.30
2019-03-31T08:50:36.486Z,8.30
2019-03-31T08:51:36.463Z,7.40
2019-03-31T08:52:36.442Z,7.20
2019-03-31T08:53:36.423Z,7.00
2019-03-31T08:54:36.396Z,8.10
2019-03-31T08:55:36.372Z,10.10
2019-03-31T08:56:36.353Z,10.90
2019-03-31T08:57:36.332Z,6.30
2019-03-31T08:58:36.309Z,9.90
2019-03-31T08:59:36.285Z,7.10
2019-03-31T09:00:36.262Z,6.10
2019-03-31T09:01:36.241Z,8.60
2019-03-31T09:02:36.269Z,8.30
2019-03-31T09:03:36.198Z,7.50
2019-03-31T09:04:36.175Z,6.60
2019-03-31T09:05:36.153Z,6.20
2019-03-31T09:06:36.134Z,6.00
2019-03-31T09:07:36.110Z,5.40
2019-03-31T09:08:36.086Z,6.60
2019-03-31T09:09:36.063Z,7.40
2019-03-31T09:10:36.041Z,6.90
2019-03-31T09:11:36.019Z,7.40
2019-03-31T09:12:35.994Z,4.30
2019-03-31T09:13:35.972Z,7.10
2019-03-31T09:14:35.949Z,6.20
2019-03-31T09:15:35.926Z,7.90
2019-03-31T09:16:35.903Z,7.50
2019-03-31T09:17:35.881Z,5.90
2019-03-31T09:18:35.858Z,7.40
2019-03-31T09:19:35.836Z,7.50
2019-03-31T09:20:35.812Z,5.90
2019-03-31T09:21:35.791Z,7.30
2019-03-31T09:22:35.772Z,6.20
2019-03-31T09:23:35.748Z,9.20
2019-03-31T09:24:35.725Z,5.10
2019-03-31T09:25:35.702Z,6.80
2019-03-31T09:26:35.685Z,12.00
2019-03-31T09:27:35.660Z,8.40
2019-03-31T09:28:35.638Z,8.50
2019-03-31T09:29:35.619Z,7.60
2019-03-31T09:30:35.596Z,7.80
2019-03-31T09:31:35.582Z,5.90
2019-03-31T09:32:35.555Z,8.60
2019-03-31T09:33:35.533Z,7.00
2019-03-31T09:34:35.509Z,5.80
2019-03-31T09:35:35.488Z,6.30
2019-03-31T09:36:35.467Z,4.80
2019-03-31T09:37:35.445Z,6.20
2019-03-31T09:38:35.430Z,9.20
2019-03-31T09:39:35.401Z,5.80
2019-03-31T09:40:35.380Z,6.60
2019-03-31T09:41:35.359Z,8.90
2019-03-31T09:42:35.337Z,6.70
2019-03-31T09:43:35.315Z,8.40
2019-03-31T09:44:35.294Z,10.70
2019-03-31T09:45:35.271Z,9.30
2019-03-31T09:46:35.251Z,6.60
2019-03-31T09:47:35.232Z,5.50
2019-03-31T09:48:35.207Z,9.00
2019-03-31T09:49:35.188Z,8.30
2019-03-31T09:50:35.167Z,7.00
2019-03-31T09:51:35.144Z,8.20
2019-03-31T09:52:35.122Z,8.60
2019-03-31T09:53:35.102Z,5.90
2019-03-31T09:54:35.080Z,7.90
2019-03-31T09:55:35.057Z,11.70
2019-03-31T09:56:35.035Z,5.80
2019-03-31T09:57:35.014Z,8.40
2019-03-31T09:58:34.993Z,6.70
2019-03-31T09:59:34.972Z,10.80
2019-03-31T10:00:34.950Z,7.90
2019-03-31T10:01:34.928Z,8.30
2019-03-31T10:02:34.908Z,8.70
2019-03-31T10:03:34.886Z,7.70
2019-03-31T10:04:34.864Z,7.10
2019-03-31T10:05:34.842Z,6.60
2019-03-31T10:06:34.821Z,8.70
2019-03-31T10:07:34.800Z,7.10
2019-03-31T10:08:34.780Z,7.00
2019-03-31T10:09:34.757Z,9.40
2019-03-31T10:10:34.735Z,8.80
2019-03-31T10:11:34.718Z,6.10
2019-03-31T10:12:34.691Z,9.60
2019-03-31T10:13:35.069Z,6.60
2019-03-31T10:14:34.647Z,8.30
2019-03-31T10:15:34.626Z,7.50
2019-03-31T10:16:34.605Z,8.90
2019-03-31T10:17:34.582Z,8.40
2019-03-31T10:18:34.560Z,8.40
2019-03-31T10:19:34.540Z,5.90
2019-03-31T10:20:34.526Z,6.70
2019-03-31T10:21:34.496Z,7.60
2019-03-31T10:22:34.474Z,5.60
2019-03-31T10:23:34.451Z,6.50
2019-03-31T10:24:34.431Z,7.90
2019-03-31T10:25:34.410Z,9.30
2019-03-31T10:26:34.390Z,8.00
2019-03-31T10:27:34.368Z,7.60
2019-03-31T10:28:34.345Z,7.40
2019-03-31T10:29:34.324Z,8.10
2019-03-31T10:30:34.302Z,7.20
2019-03-31T10:31:34.283Z,8.70
2019-03-31T10:32:34.260Z,6.30
2019-03-31T10:33:34.238Z,10.20
2019-03-31T10:34:34.217Z,7.90
2019-03-31T10:35:34.195Z,7.50
2019-03-31T10:36:44.532Z,5.80
2019-03-31T10:37:34.155Z,6.80
2019-03-31T10:38:34.133Z,6.10
2019-03-31T10:39:34.114Z,8.90
2019-03-31T10:40:34.091Z,7.00
2019-03-31T10:41:34.071Z,8.90
2019-03-31T10:42:34.050Z,6.90
2019-03-31T10:43:34.027Z,12.60
2019-03-31T10:44:34.007Z,9.70
2019-03-31T10:45:33.992Z,8.10
2019-03-31T10:46:33.965Z,5.60
2019-03-31T10:47:33.942Z,9.10
2019-03-31T10:48:33.920Z,7.40
2019-03-31T10:49:33.897Z,8.40
2019-03-31T10:50:33.876Z,8.20
2019-03-31T10:51:33.853Z,7.00
2019-03-31T10:52:33.831Z,7.30
2019-03-31T10:53:33.808Z,6.80
2019-03-31T10:54:33.787Z,7.00
2019-03-31T10:55:33.764Z,8.10
2019-03-31T10:56:33.743Z,4.70
2019-03-31T10:57:33.719Z,8.00
2019-03-31T10:58:33.698Z,6.40
2019-03-31T10:59:33.676Z,7.80
2019-03-31T11:00:33.668Z,9.40
2019-03-31T11:01:33.632Z,4.80
2019-03-31T11:02:33.609Z,6.40
2019-03-31T11:03:33.593Z,7.00
2019-03-31T11:04:33.564Z,5.50
2019-03-31T11:05:33.542Z,6.70
2019-03-31T11:06:33.521Z,5.00
2019-03-31T11:07:33.499Z,5.20
2019-03-31T11:08:33.476Z,6.30
2019-03-31T11:09:34.494Z,5.50
2019-03-31T11:10:33.432Z,3.50
2019-03-31T11:11:33.410Z,4.30
2019-03-31T11:12:33.387Z,5.90
2019-03-31T11:13:33.369Z,6.70
2019-03-31T11:14:33.342Z,4.50
2019-03-31T11:15:33.320Z,5.60
2019-03-31T11:16:33.296Z,5.00
2019-03-31T11:17:33.275Z,4.50
2019-03-31T11:18:33.252Z,6.70
2019-03-31T11:19:33.231Z,3.40
2019-03-31T11:20:33.207Z,4.40
2019-03-31T11:21:33.192Z,4.40
2019-03-31T11:22:33.165Z,5.20
2019-03-31T11:23:33.142Z,5.90
2019-03-31T11:24:33.126Z,6.20
2019-03-31T11:25:33.095Z,2.80
2019-03-31T11:26:33.074Z,3.20
2019-03-31T11:27:33.052Z,4.20
2019-03-31T11:28:33.119Z,6.10
2019-03-31T11:29:33.007Z,4.10
2019-03-31T11:30:32.990Z,4.80
2019-03-31T11:31:32.963Z,7.90
2019-03-31T11:32:32.942Z,4.10
2019-03-31T11:33:32.917Z,5.60
2019-03-31T11:34:32.896Z,5.90
2019-03-31T11:35:32.873Z,5.10
2019-03-31T11:36:32.849Z,5.20
2019-03-31T11:37:32.826Z,3.90
2019-03-31T11:38:32.804Z,4.80
2019-03-31T11:39:32.784Z,4.30
2019-03-31T11:40:32.760Z,4.00
2019-03-31T11:41:32.737Z,5.60
2019-03-31T11:42:32.716Z,3.20
2019-03-31T11:43:32.693Z,4.20
2019-03-31T11:44:32.673Z,6.30
2019-03-31T11:45:32.651Z,3.90
2019-03-31T11:46:32.628Z,4.20
2019-03-31T11:47:32.606Z,3.00
2019-03-31T11:48:32.581Z,3.00
2019-03-31T11:49:32.560Z,2.90
2019-03-31T11:50:32.538Z,3.20
2019-03-31T11:51:32.514Z,5.10
2019-03-31T11:52:32.492Z,5.60
2019-03-31T11:53:32.471Z,3.70
2019-03-31T11:54:32.447Z,3.90
2019-03-31T11:55:32.429Z,5.40
2019-03-31T11:56:32.403Z,5.30
2019-03-31T11:57:32.384Z,2.60
2019-03-31T11:58:32.579Z,4.70
2019-03-31T11:59:32.337Z,6.20
2019-03-31T12:00:32.316Z,4.40
2019-03-31T12:01:32.293Z,5.00
2019-03-31T12:02:32.273Z,5.70
2019-03-31T12:03:32.251Z,5.20
2019-03-31T12:04:32.224Z,4.10
2019-03-31T12:05:32.202Z,4.50
2019-03-31T12:06:32.181Z,3.70
2019-03-31T12:07:45.688Z,4.60
2019-03-31T12:08:32.137Z,4.60
2019-03-31T12:09:32.114Z,8.80
2019-03-31T12:10:32.101Z,5.80
2019-03-31T12:11:32.070Z,6.40
2019-03-31T12:12:32.048Z,4.00
2019-03-31T12:13:32.034Z,4.50
2019-03-31T12:14:32.004Z,3.80
2019-03-31T12:15:31.982Z,6.90
2019-03-31T12:16:31.960Z,5.00
2019-03-31T12:17:31.938Z,5.30
2019-03-31T12:18:31.916Z,4.60
2019-03-31T12:19:31.895Z,3.80
2019-03-31T12:20:31.874Z,4.70
2019-03-31T12:21:31.848Z,4.60
2019-03-31T12:22:31.828Z,5.40
2019-03-31T12:23:31.807Z,6.20
2019-03-31T12:24:31.784Z,9.60
2019-03-31T12:25:31.762Z,6.60
2019-03-31T12:26:31.740Z,5.90
2019-03-31T12:27:31.718Z,6.70
2019-03-31T12:28:31.695Z,6.00
2019-03-31T12:29:31.674Z,7.80
2019-03-31T12:30:31.656Z,5.50
2019-03-31T12:31:31.630Z,4.70
2019-03-31T12:32:31.610Z,5.20
2019-03-31T12:33:31.587Z,3.90
2019-03-31T12:34:31.565Z,6.10
2019-03-31T12:35:31.555Z,4.20
2019-03-31T12:36:31.521Z,4.40
2019-03-31T12:37:42.247Z,6.00
2019-03-31T12:38:31.479Z,6.00
2019-03-31T12:39:31.457Z,6.30
2019-03-31T12:40:31.435Z,6.90
2019-03-31T12:41:31.412Z,4.40
2019-03-31T12:42:31.391Z,7.30
2019-03-31T12:43:31.369Z,4.20
2019-03-31T12:44:31.347Z,3.50
2019-03-31T12:45:31.325Z,4.60
2019-03-31T12:46:31.337Z,4.10
2019-03-31T12:47:31.281Z,4.70
2019-03-31T12:48:31.778Z,5.60
2019-03-31T12:49:31.235Z,4.90
2019-03-31T12:50:31.216Z,5.60
2019-03-31T12:51:31.197Z,4.00
2019-03-31T12:52:31.172Z,4.50
2019-03-31T12:53:31.150Z,4.50
2019-03-31T12:54:31.127Z,6.60
2019-03-31T12:55:31.108Z,5.40
2019-03-31T12:56:31.088Z,3.50
2019-03-31T12:57:31.062Z,4.10